Time;durP1;ratioP1;P1;durP2;ratioP2;P2;SDS_P1;SDS_P2;PMS_P1;PMS_P2;Temp;Humidity;BMP_temperature;BMP_pressure;BME280_temperature;BME280_humidity;BME280_pressure;Samples;Min_cycle;Max_cycle;Signal;HPM_P1;HPM_P2
2023/09/16 00:00:40;;;;;;;6.07;4.10;;;;;;;;;;6107700;23;20173;-91
2023/09/16 00:03:45;;;;;;;6.88;4.45;;;;;;;;;;6108331;23;20201;-91
2023/09/16 00:06:51;;;;;;;6.55;4.32;;;;;;;;;;6109678;23;20194;-89
2023/09/16 00:09:58;;;;;;;12.25;4.75;;;;;;;;;;6108752;23;20181;-90
2023/09/16 00:13:04;;;;;;;7.68;4.50;;;;;;;;;;6110225;23;20166;-90
2023/09/16 00:16:11;;;;;;;6.65;4.03;;;;;;;;;;6109102;23;20170;-91
2023/09/16 00:19:17;;;;;;;6.05;3.85;;;;;;;;;;6108437;23;20233;-88
2023/09/16 00:22:22;;;;;;;8.60;4.20;;;;;;;;;;6106357;23;20249;-89
2023/09/16 00:25:28;;;;;;;8.82;4.28;;;;;;;;;;6107263;23;20169;-88
2023/09/16 00:28:35;;;;;;;7.05;4.47;;;;;;;;;;6108334;23;20170;-88
2023/09/16 00:31:40;;;;;;;7.47;4.40;;;;;;;;;;6082610;23;20283;-90
2023/09/16 00:34:45;;;;;;;7.88;4.07;;;;;;;;;;6053423;23;20172;-88
2023/09/16 00:37:50;;;;;;;7.43;3.95;;;;;;;;;;6048775;23;20179;-88
2023/09/16 00:40:57;;;;;;;7.35;4.03;;;;;;;;;;6050000;23;20175;-87
2023/09/16 00:44:02;;;;;;;7.65;3.70;;;;;;;;;;6048253;23;20258;-88
2023/09/16 00:47:07;;;;;;;7.28;3.97;;;;;;;;;;6049163;23;20264;-91
2023/09/16 00:50:13;;;;;;;6.65;4.00;;;;;;;;;;6049437;23;20167;-89
2023/09/16 00:53:18;;;;;;;5.68;3.78;;;;;;;;;;6049359;23;20167;-87
2023/09/16 00:56:27;;;;;;;8.00;4.22;;;;;;;;;;6049147;23;20615;-89
2023/09/16 00:59:33;;;;;;;8.57;4.60;;;;;;;;;;6050547;23;20166;-88
2023/09/16 01:02:38;;;;;;;8.80;5.07;;;;;;;;;;6049672;23;20175;-89
2023/09/16 01:05:45;;;;;;;10.73;5.85;;;;;;;;;;6051166;23;20171;-91
2023/09/16 01:08:51;;;;;;;10.68;4.88;;;;;;;;;;6049508;23;20179;-90
2023/09/16 01:11:58;;;;;;;9.65;4.80;;;;;;;;;;6047966;23;20179;-88
2023/09/16 01:15:03;;;;;;;9.07;4.85;;;;;;;;;;6049019;23;20175;-90
2023/09/16 01:18:11;;;;;;;8.43;5.30;;;;;;;;;;6049621;23;20175;-88
2023/09/16 01:21:17;;;;;;;8.85;5.50;;;;;;;;;;6049295;23;20171;-88
2023/09/16 01:24:23;;;;;;;10.07;5.47;;;;;;;;;;6049713;23;20194;-89
2023/09/16 01:27:30;;;;;;;7.00;4.85;;;;;;;;;;6049751;23;20174;-89
2023/09/16 01:30:38;;;;;;;10.77;5.18;;;;;;;;;;6053699;23;20224;-89
2023/09/16 01:33:46;;;;;;;8.88;4.50;;;;;;;;;;6062089;23;20166;-87
2023/09/16 01:36:53;;;;;;;9.50;4.78;;;;;;;;;;6062927;23;20174;-89
2023/09/16 01:39:59;;;;;;;14.30;4.88;;;;;;;;;;6060829;23;20171;-89
2023/09/16 01:43:06;;;;;;;9.85;4.82;;;;;;;;;;6060614;23;20198;-88
2023/09/16 01:46:12;;;;;;;6.20;4.28;;;;;;;;;;6063586;23;20175;-90
2023/09/16 01:49:16;;;;;;;6.30;4.13;;;;;;;;;;6061892;23;20176;-90
2023/09/16 01:52:22;;;;;;;12.05;4.85;;;;;;;;;;6061754;23;20178;-90
2023/09/16 01:55:27;;;;;;;9.73;4.85;;;;;;;;;;6063520;23;20171;-91
2023/09/16 01:58:34;;;;;;;7.88;4.78;;;;;;;;;;6060054;23;20175;-87
2023/09/16 02:01:39;;;;;;;9.07;5.50;;;;;;;;;;6061946;23;20158;-91
2023/09/16 02:04:44;;;;;;;8.95;5.85;;;;;;;;;;6059275;23;20199;-85
2023/09/16 02:07:49;;;;;;;10.77;5.72;;;;;;;;;;6059909;23;20720;-88
2023/09/16 02:10:53;;;;;;;9.57;5.82;;;;;;;;;;6060509;23;20178;-89
2023/09/16 02:14:02;;;;;;;8.73;5.22;;;;;;;;;;6059159;23;20300;-89
2023/09/16 02:17:09;;;;;;;6.78;5.00;;;;;;;;;;6060581;23;20182;-88
2023/09/16 02:20:14;;;;;;;9.02;5.47;;;;;;;;;;6059761;23;20175;-90
2023/09/16 02:23:21;;;;;;;10.23;4.97;;;;;;;;;;6059604;23;20250;-90
2023/09/16 02:26:26;;;;;;;9.38;4.82;;;;;;;;;;6061629;23;20166;-87
2023/09/16 02:29:33;;;;;;;11.98;5.70;;;;;;;;;;6060819;23;20977;-90
2023/09/16 02:32:39;;;;;;;9.32;5.45;;;;;;;;;;6076681;23;20215;-88
2023/09/16 02:35:44;;;;;;;14.00;6.18;;;;;;;;;;6078762;23;20174;-89
2023/09/16 02:38:49;;;;;;;9.27;5.88;;;;;;;;;;6076956;23;20171;-89
2023/09/16 02:41:54;;;;;;;9.93;6.10;;;;;;;;;;6077991;23;20177;-90
2023/09/16 02:45:01;;;;;;;13.68;5.75;;;;;;;;;;6077631;23;20285;-89
2023/09/16 02:48:07;;;;;;;8.50;5.63;;;;;;;;;;6077324;23;20214;-90
2023/09/16 02:51:13;;;;;;;10.32;6.38;;;;;;;;;;6076522;23;20219;-91
2023/09/16 02:54:18;;;;;;;11.25;7.07;;;;;;;;;;6077305;23;20166;-87
2023/09/16 02:57:23;;;;;;;11.80;6.25;;;;;;;;;;6075287;23;20187;-90
2023/09/16 03:00:29;;;;;;;10.00;6.03;;;;;;;;;;6078415;23;20162;-89
2023/09/16 03:03:35;;;;;;;11.15;6.53;;;;;;;;;;6076424;23;20194;-90
2023/09/16 03:06:39;;;;;;;15.13;6.38;;;;;;;;;;6076237;23;20203;-88
2023/09/16 03:09:44;;;;;;;14.00;7.00;;;;;;;;;;6076718;23;20490;-90
2023/09/16 03:12:50;;;;;;;17.23;6.57;;;;;;;;;;6077653;23;20174;-88
2023/09/16 03:16:14;;;;;;;13.00;6.05;;;;;;;;;;6078063;23;20179;-88
2023/09/16 03:19:21;;;;;;;19.52;6.88;;;;;;;;;;6077056;23;20631;-88
2023/09/16 03:22:26;;;;;;;11.02;6.60;;;;;;;;;;6077383;23;20200;-88
2023/09/16 03:25:31;;;;;;;12.93;6.70;;;;;;;;;;6077275;23;20250;-90
2023/09/16 03:28:37;;;;;;;15.73;6.72;;;;;;;;;;6077128;23;20179;-89
2023/09/16 03:31:42;;;;;;;10.90;6.68;;;;;;;;;;6077451;23;20273;-89
2023/09/16 03:34:56;;;;;;;11.65;6.90;;;;;;;;;;6076231;23;20358;-88
2023/09/16 03:38:01;;;;;;;18.27;6.43;;;;;;;;;;6076488;23;20218;-89
2023/09/16 03:41:07;;;;;;;9.85;6.30;;;;;;;;;;6078723;23;20250;-87
2023/09/16 03:44:14;;;;;;;9.00;6.00;;;;;;;;;;6079757;23;20171;-90
2023/09/16 03:47:19;;;;;;;14.18;5.80;;;;;;;;;;6079243;23;20230;-90
2023/09/16 03:50:28;;;;;;;11.10;5.95;;;;;;;;;;6080430;23;20218;-89
2023/09/16 03:53:33;;;;;;;10.43;6.50;;;;;;;;;;6079542;23;20198;-88
2023/09/16 03:56:38;;;;;;;11.10;6.18;;;;;;;;;;6080219;23;20182;-89
2023/09/16 03:59:43;;;;;;;11.77;6.30;;;;;;;;;;6080582;23;20516;-91
2023/09/16 04:02:48;;;;;;;9.63;6.55;;;;;;;;;;6081466;23;20215;-88
2023/09/16 04:06:01;;;;;;;15.50;6.47;;;;;;;;;;6078271;23;20231;-89
2023/09/16 04:09:06;;;;;;;13.82;6.75;;;;;;;;;;6078257;23;20246;-89
2023/09/16 04:12:12;;;;;;;10.63;6.80;;;;;;;;;;6076639;23;20185;-89
2023/09/16 04:15:18;;;;;;;13.38;6.45;;;;;;;;;;6078588;23;20269;-89
2023/09/16 04:18:22;;;;;;;14.77;6.72;;;;;;;;;;6076351;23;20246;-90
2023/09/16 04:21:29;;;;;;;12.68;6.53;;;;;;;;;;6076582;23;20166;-89
2023/09/16 04:24:36;;;;;;;9.98;6.30;;;;;;;;;;6076282;23;20242;-87
2023/09/16 04:27:41;;;;;;;14.60;6.80;;;;;;;;;;6075485;23;20227;-86
2023/09/16 04:30:49;;;;;;;11.90;6.68;;;;;;;;;;6076892;23;20632;-88
2023/09/16 04:33:54;;;;;;;15.25;6.85;;;;;;;;;;6060189;23;20198;-90
2023/09/16 04:37:02;;;;;;;13.63;6.60;;;;;;;;;;6061765;23;20512;-90
2023/09/16 04:40:10;;;;;;;13.30;6.50;;;;;;;;;;6059467;23;20174;-87
2023/09/16 04:43:15;;;;;;;10.77;6.57;;;;;;;;;;6059038;23;20171;-89
2023/09/16 04:46:20;;;;;;;11.50;7.25;;;;;;;;;;6060621;23;20170;-88
2023/09/16 04:49:26;;;;;;;12.52;6.63;;;;;;;;;;6061299;23;20174;-88
2023/09/16 04:52:34;;;;;;;14.82;6.93;;;;;;;;;;6059820;23;20615;-87
2023/09/16 04:55:41;;;;;;;13.73;6.63;;;;;;;;;;6059652;23;20202;-89
2023/09/16 04:58:49;;;;;;;9.68;5.93;;;;;;;;;;6060342;23;20194;-88
2023/09/16 05:01:54;;;;;;;9.70;5.28;;;;;;;;;;6060401;23;20194;-90
2023/09/16 05:04:59;;;;;;;16.23;6.63;;;;;;;;;;6061778;23;20165;-87
2023/09/16 05:08:06;;;;;;;10.68;6.15;;;;;;;;;;6059493;23;20257;-90
2023/09/16 05:11:13;;;;;;;13.70;6.68;;;;;;;;;;6059544;23;20170;-89
2023/09/16 05:14:28;;;;;;;12.95;5.65;;;;;;;;;;6058981;23;20198;-89
2023/09/16 05:17:35;;;;;;;12.88;6.32;;;;;;;;;;6058930;23;20178;-89
2023/09/16 05:20:40;;;;;;;10.85;6.20;;;;;;;;;;6059652;23;20505;-89
2023/09/16 05:23:47;;;;;;;13.35;6.05;;;;;;;;;;6060188;23;20626;-89
2023/09/16 05:26:54;;;;;;;12.07;6.13;;;;;;;;;;6059486;23;20314;-92
2023/09/16 05:30:01;;;;;;;9.95;5.15;;;;;;;;;;6058059;23;20173;-89
2023/09/16 05:33:08;;;;;;;7.13;4.97;;;;;;;;;;6058300;23;20292;-87
2023/09/16 05:36:13;;;;;;;11.35;4.93;;;;;;;;;;6059458;23;20174;-88
2023/09/16 05:39:20;;;;;;;11.32;5.93;;;;;;;;;;6060524;23;20211;-88
2023/09/16 05:42:25;;;;;;;13.52;6.50;;;;;;;;;;6057576;23;20236;-88
2023/09/16 05:45:31;;;;;;;10.75;6.10;;;;;;;;;;6058488;23;20175;-88
2023/09/16 05:48:37;;;;;;;10.63;5.97;;;;;;;;;;6056731;23;20229;-88
2023/09/16 05:51:43;;;;;;;13.05;6.03;;;;;;;;;;6061438;23;20206;-88
2023/09/16 05:54:50;;;;;;;13.35;6.07;;;;;;;;;;6061483;23;20234;-89
2023/09/16 05:57:55;;;;;;;11.65;5.93;;;;;;;;;;6060328;23;20178;-87
2023/09/16 06:01:00;;;;;;;11.30;6.78;;;;;;;;;;6063755;23;20211;-89
2023/09/16 06:04:08;;;;;;;11.52;6.75;;;;;;;;;;6066124;23;20174;-89
2023/09/16 06:07:14;;;;;;;15.02;6.75;;;;;;;;;;6063678;23;20241;-88
2023/09/16 06:10:21;;;;;;;10.27;5.88;;;;;;;;;;6068021;23;20155;-89
2023/09/16 06:13:26;;;;;;;10.57;6.22;;;;;;;;;;6067877;23;20250;-90
2023/09/16 06:16:32;;;;;;;10.27;6.10;;;;;;;;;;6065178;23;20268;-89
2023/09/16 06:19:37;;;;;;;14.30;5.57;;;;;;;;;;6065740;23;20268;-90
2023/09/16 06:22:42;;;;;;;11.85;6.88;;;;;;;;;;6065601;23;20174;-88
2023/09/16 06:25:49;;;;;;;9.63;6.18;;;;;;;;;;6067929;23;20170;-90
2023/09/16 06:28:54;;;;;;;15.02;6.55;;;;;;;;;;6063869;23;20635;-90
2023/09/16 06:31:59;;;;;;;11.63;6.40;;;;;;;;;;6071409;23;20193;-88
2023/09/16 06:35:05;;;;;;;10.93;6.50;;;;;;;;;;6081260;23;20186;-90
2023/09/16 06:38:10;;;;;;;12.32;6.65;;;;;;;;;;6080096;23;20170;-87
2023/09/16 06:41:19;;;;;;;11.25;6.20;;;;;;;;;;6083221;23;20175;-90
2023/09/16 06:44:25;;;;;;;14.15;7.07;;;;;;;;;;6084851;23;20505;-88
2023/09/16 06:47:30;;;;;;;11.90;6.47;;;;;;;;;;6082953;23;20179;-89
2023/09/16 06:50:35;;;;;;;14.25;5.97;;;;;;;;;;6082785;23;20170;-89
2023/09/16 06:53:40;;;;;;;11.20;6.60;;;;;;;;;;6080590;23;20171;-88
2023/09/16 06:56:47;;;;;;;9.55;6.30;;;;;;;;;;6085762;23;20171;-87
2023/09/16 06:59:53;;;;;;;12.57;6.68;;;;;;;;;;6080655;23;20600;-88
2023/09/16 07:02:58;;;;;;;10.18;5.93;;;;;;;;;;6081201;23;20234;-87
2023/09/16 07:06:07;;;;;;;9.10;5.93;;;;;;;;;;6081462;23;20186;-85
2023/09/16 07:09:12;;;;;;;10.57;6.45;;;;;;;;;;6082386;23;20186;-88
2023/09/16 07:12:19;;;;;;;10.52;6.22;;;;;;;;;;6081463;23;20179;-87
2023/09/16 07:15:25;;;;;;;10.90;6.63;;;;;;;;;;6083557;23;20194;-89
2023/09/16 07:18:30;;;;;;;11.68;6.60;;;;;;;;;;6082342;23;20174;-91
2023/09/16 07:21:37;;;;;;;9.93;6.20;;;;;;;;;;6082451;23;20690;-89
2023/09/16 07:24:42;;;;;;;10.27;6.43;;;;;;;;;;6083208;23;20186;-91
2023/09/16 07:27:49;;;;;;;9.48;6.20;;;;;;;;;;6080332;23;20170;-87
2023/09/16 07:30:54;;;;;;;10.88;6.22;;;;;;;;;;6081159;23;20219;-89
2023/09/16 07:34:00;;;;;;;12.00;5.57;;;;;;;;;;6070028;23;20174;-88
2023/09/16 07:37:05;;;;;;;10.85;6.00;;;;;;;;;;6069981;23;20501;-89
2023/09/16 07:40:11;;;;;;;9.70;5.93;;;;;;;;;;6070823;23;20204;-90
2023/09/16 07:43:20;;;;;;;10.75;6.53;;;;;;;;;;6069230;23;20167;-89
2023/09/16 07:46:25;;;;;;;11.30;5.82;;;;;;;;;;6071339;23;20631;-89
2023/09/16 07:49:30;;;;;;;10.73;5.50;;;;;;;;;;6069579;23;20166;-87
2023/09/16 07:52:35;;;;;;;9.88;6.57;;;;;;;;;;6069010;23;20222;-89
2023/09/16 07:55:41;;;;;;;13.07;5.97;;;;;;;;;;6070105;23;20235;-90
2023/09/16 07:58:48;;;;;;;15.02;6.28;;;;;;;;;;6068264;23;20154;-89
2023/09/16 08:01:54;;;;;;;8.32;5.55;;;;;;;;;;6068806;23;20178;-90
2023/09/16 08:04:59;;;;;;;8.20;5.50;;;;;;;;;;6070215;23;20162;-88
2023/09/16 08:08:05;;;;;;;7.47;5.07;;;;;;;;;;6069416;23;20238;-89
2023/09/16 08:11:11;;;;;;;8.40;5.53;;;;;;;;;;6066365;23;20162;-90
2023/09/16 08:14:21;;;;;;;8.50;4.93;;;;;;;;;;6067408;23;20174;-89
2023/09/16 08:17:26;;;;;;;6.15;4.15;;;;;;;;;;6066066;23;20186;-90
2023/09/16 08:20:31;;;;;;;6.20;4.18;;;;;;;;;;6064851;23;20180;-91
2023/09/16 08:23:37;;;;;;;7.50;4.13;;;;;;;;;;6067442;23;20178;-88
2023/09/16 08:26:42;;;;;;;9.20;5.90;;;;;;;;;;6068968;23;20307;-89
2023/09/16 08:29:51;;;;;;;5.55;3.78;;;;;;;;;;6067681;23;20174;-87
2023/09/16 08:32:56;;;;;;;5.22;3.67;;;;;;;;;;6058707;23;20208;-89
2023/09/16 08:36:06;;;;;;;9.77;6.70;;;;;;;;;;6056743;23;20279;-87
2023/09/16 08:39:11;;;;;;;6.32;4.30;;;;;;;;;;6058411;23;20176;-90
2023/09/16 08:42:22;;;;;;;3.88;3.15;;;;;;;;;;6054618;23;20175;-88
2023/09/16 08:45:31;;;;;;;4.30;3.30;;;;;;;;;;6054335;23;20207;-87
2023/09/16 08:48:36;;;;;;;5.28;3.17;;;;;;;;;;6053078;23;20174;-90
2023/09/16 08:51:43;;;;;;;3.78;3.00;;;;;;;;;;6056174;23;20484;-89
2023/09/16 08:54:49;;;;;;;4.45;3.05;;;;;;;;;;6058424;23;20203;-91
2023/09/16 08:57:59;;;;;;;4.10;3.28;;;;;;;;;;6058411;23;20224;-90
2023/09/16 09:01:06;;;;;;;6.93;3.90;;;;;;;;;;6056539;23;20174;-91
2023/09/16 09:04:11;;;;;;;5.57;3.83;;;;;;;;;;6057838;23;20218;-91
2023/09/16 09:07:17;;;;;;;6.80;4.60;;;;;;;;;;6056738;23;20170;-88
2023/09/16 09:10:23;;;;;;;6.18;3.72;;;;;;;;;;6040930;23;20155;-88
2023/09/16 09:13:29;;;;;;;9.15;4.05;;;;;;;;;;6057565;23;20655;-89
2023/09/16 09:16:37;;;;;;;7.32;4.45;;;;;;;;;;6042222;23;20209;-92
2023/09/16 09:19:44;;;;;;;4.65;3.42;;;;;;;;;;6058840;23;20182;-91
2023/09/16 09:22:51;;;;;;;4.55;3.20;;;;;;;;;;6041693;23;20484;-90
2023/09/16 09:25:58;;;;;;;4.15;2.97;;;;;;;;;;6057104;23;20197;-90
2023/09/16 09:29:09;;;;;;;5.22;2.70;;;;;;;;;;6049958;23;20201;-91
2023/09/16 09:32:15;;;;;;;6.25;3.25;;;;;;;;;;6074816;23;20241;-91
2023/09/16 09:35:22;;;;;;;6.53;3.20;;;;;;;;;;6065636;23;20174;-92
2023/09/16 09:38:28;;;;;;;4.78;2.90;;;;;;;;;;6064717;23;20176;-89
2023/09/16 09:41:42;;;;;;;5.65;2.88;;;;;;;;;;6086733;23;20170;-91
2023/09/16 09:44:47;;;;;;;5.60;3.10;;;;;;;;;;6066243;23;20170;-91
2023/09/16 09:47:54;;;;;;;3.50;2.80;;;;;;;;;;6082990;23;20248;-91
2023/09/16 09:51:01;;;;;;;3.90;3.38;;;;;;;;;;6068030;23;20232;-89
2023/09/16 09:54:06;;;;;;;4.05;2.70;;;;;;;;;;6068724;23;20170;-91
2023/09/16 09:57:13;;;;;;;4.07;3.15;;;;;;;;;;6068158;23;20177;-91
2023/09/16 10:00:24;;;;;;;4.07;2.90;;;;;;;;;;6086535;23;20170;-90
2023/09/16 10:03:33;;;;;;;3.40;3.05;;;;;;;;;;6067299;23;20222;-91
2023/09/16 10:06:39;;;;;;;3.65;3.13;;;;;;;;;;6066108;23;20194;-90
2023/09/16 10:09:44;;;;;;;5.13;3.28;;;;;;;;;;6068714;23;20169;-91
2023/09/16 10:12:50;;;;;;;4.70;2.90;;;;;;;;;;6064809;23;20618;-92
2023/09/16 10:16:01;;;;;;;4.45;3.20;;;;;;;;;;6063463;23;20174;-90
2023/09/16 10:19:08;;;;;;;3.35;2.97;;;;;;;;;;6064794;23;20269;-91
2023/09/16 10:22:14;;;;;;;4.13;3.40;;;;;;;;;;6067710;23;20174;-90
2023/09/16 10:25:19;;;;;;;4.78;3.35;;;;;;;;;;6066689;23;20669;-90
2023/09/16 10:28:25;;;;;;;4.22;3.10;;;;;;;;;;6065214;23;20170;-91
2023/09/16 10:31:31;;;;;;;4.07;3.17;;;;;;;;;;6066218;23;20237;-89
2023/09/16 10:34:41;;;;;;;4.68;3.83;;;;;;;;;;6068141;23;20218;-91
2023/09/16 10:37:48;;;;;;;5.75;3.33;;;;;;;;;;6065671;23;20234;-92
2023/09/16 10:40:54;;;;;;;3.70;3.13;;;;;;;;;;6067049;23;20165;-91
2023/09/16 10:44:00;;;;;;;4.78;3.22;;;;;;;;;;6065111;23;20170;-92
2023/09/16 10:47:06;;;;;;;7.20;3.28;;;;;;;;;;6067538;23;20226;-90
2023/09/16 10:50:13;;;;;;;9.45;3.20;;;;;;;;;;6065463;23;20174;-91
2023/09/16 10:53:20;;;;;;;4.57;3.30;;;;;;;;;;6060943;23;20174;-89
2023/09/16 10:56:28;;;;;;;4.45;3.30;;;;;;;;;;6061734;23;20174;-90
2023/09/16 10:59:35;;;;;;;3.75;3.00;;;;;;;;;;6061006;23;20173;-89
2023/09/16 11:02:42;;;;;;;4.00;2.70;;;;;;;;;;6059449;23;20211;-89
2023/09/16 11:05:49;;;;;;;6.40;3.13;;;;;;;;;;6061283;23;20194;-89
2023/09/16 11:08:54;;;;;;;3.33;2.78;;;;;;;;;;6063055;23;20177;-90
2023/09/16 11:11:59;;;;;;;4.82;3.00;;;;;;;;;;6062699;23;20262;-91
2023/09/16 11:15:07;;;;;;;3.83;2.95;;;;;;;;;;6068857;23;20173;-90
2023/09/16 11:18:12;;;;;;;5.28;2.88;;;;;;;;;;6067400;23;20178;-91
2023/09/16 11:21:21;;;;;;;5.30;2.80;;;;;;;;;;6063476;23;20153;-91
2023/09/16 11:24:28;;;;;;;5.82;2.85;;;;;;;;;;6060113;23;20182;-90
2023/09/16 11:27:33;;;;;;;6.03;3.15;;;;;;;;;;6060755;23;20201;-87
2023/09/16 11:30:39;;;;;;;2.83;2.28;;;;;;;;;;6061890;23;20178;-91
2023/09/16 11:33:44;;;;;;;3.17;2.88;;;;;;;;;;6065757;23;20174;-92
2023/09/16 11:40:16;;;;;;;4.90;2.72;;;;;;;;;;6107490;23;20241;-89
2023/09/16 11:43:21;;;;;;;3.30;2.85;;;;;;;;;;6091454;23;20213;-90
2023/09/16 11:46:35;;;;;;;3.28;2.55;;;;;;;;;;6093819;23;20192;-90
2023/09/16 11:49:42;;;;;;;3.83;2.83;;;;;;;;;;6090492;23;20613;-90
2023/09/16 11:52:47;;;;;;;8.70;2.90;;;;;;;;;;6088579;23;20168;-89
2023/09/16 11:55:54;;;;;;;4.35;2.55;;;;;;;;;;6107650;23;20181;-90
2023/09/16 11:59:00;;;;;;;3.00;2.70;;;;;;;;;;6090393;23;20289;-89
2023/09/16 12:02:05;;;;;;;2.83;2.55;;;;;;;;;;6092232;23;20628;-90
2023/09/16 12:05:12;;;;;;;3.38;2.70;;;;;;;;;;6096214;23;20153;-89
2023/09/16 12:08:18;;;;;;;3.40;2.90;;;;;;;;;;6095477;23;20169;-89
2023/09/16 12:11:26;;;;;;;4.82;2.65;;;;;;;;;;6115590;23;20221;-90
2023/09/16 12:14:31;;;;;;;3.55;3.00;;;;;;;;;;6096847;23;20168;-89
2023/09/16 12:17:37;;;;;;;4.00;2.90;;;;;;;;;;6097565;23;20165;-90
2023/09/16 12:20:42;;;;;;;5.10;2.88;;;;;;;;;;6096442;23;20169;-90
2023/09/16 12:23:49;;;;;;;2.85;2.47;;;;;;;;;;6097179;23;20221;-90
2023/09/16 12:26:56;;;;;;;3.88;2.70;;;;;;;;;;6086019;23;20242;-90
2023/09/16 12:30:01;;;;;;;3.70;2.70;;;;;;;;;;6084134;23;20169;-90
2023/09/16 12:33:07;;;;;;;3.25;2.58;;;;;;;;;;6084836;23;20621;-90
2023/09/16 12:36:16;;;;;;;4.25;3.03;;;;;;;;;;6084173;23;20181;-89
2023/09/16 12:39:22;;;;;;;8.38;3.60;;;;;;;;;;6084103;23;20173;-90
2023/09/16 12:42:30;;;;;;;4.07;2.85;;;;;;;;;;6084715;23;20173;-88
2023/09/16 12:45:36;;;;;;;4.78;2.85;;;;;;;;;;6084902;23;20174;-89
2023/09/16 12:48:42;;;;;;;2.95;2.63;;;;;;;;;;6084948;23;20177;-89
2023/09/16 12:51:47;;;;;;;3.33;2.63;;;;;;;;;;6085322;23;20260;-87
2023/09/16 12:54:52;;;;;;;3.10;2.70;;;;;;;;;;6087401;23;20174;-91
2023/09/16 12:57:59;;;;;;;3.60;2.40;;;;;;;;;;6086947;23;20169;-89
2023/09/16 13:01:07;;;;;;;3.97;2.78;;;;;;;;;;6086503;23;20195;-90
2023/09/16 13:04:14;;;;;;;4.25;3.00;;;;;;;;;;6083855;23;20170;-90
2023/09/16 13:07:21;;;;;;;4.50;2.67;;;;;;;;;;6085046;23;20197;-92
2023/09/16 13:10:28;;;;;;;10.80;2.53;;;;;;;;;;6086113;23;20501;-92
2023/09/16 13:13:35;;;;;;;4.60;2.83;;;;;;;;;;6086258;23;20668;-88
2023/09/16 13:16:42;;;;;;;4.22;2.85;;;;;;;;;;6085561;23;20174;-88
2023/09/16 13:19:48;;;;;;;5.65;2.58;;;;;;;;;;6087503;23;20184;-88
2023/09/16 13:22:58;;;;;;;5.32;2.90;;;;;;;;;;6087274;23;20211;-89
2023/09/16 13:26:11;;;;;;;5.75;3.10;;;;;;;;;;6085927;23;20316;-89
2023/09/16 13:29:18;;;;;;;5.78;3.25;;;;;;;;;;6068195;23;20508;-90
2023/09/16 13:32:23;;;;;;;2.90;2.60;;;;;;;;;;6068207;23;20614;-89
2023/09/16 13:35:28;;;;;;;5.60;2.45;;;;;;;;;;6068031;23;20234;-90
2023/09/16 13:38:42;;;;;;;4.35;2.22;;;;;;;;;;6068173;23;20173;-89
2023/09/16 13:41:48;;;;;;;3.25;2.60;;;;;;;;;;6085330;23;20166;-89
2023/09/16 13:44:58;;;;;;;6.13;3.63;;;;;;;;;;6068529;23;20213;-91
2023/09/16 13:48:07;;;;;;;3.55;2.70;;;;;;;;;;6068717;23;20205;-90
2023/09/16 13:51:14;;;;;;;3.70;2.50;;;;;;;;;;6068486;23;20174;-90
2023/09/16 13:54:20;;;;;;;5.25;3.10;;;;;;;;;;6068086;23;20210;-88
2023/09/16 13:57:25;;;;;;;4.78;2.50;;;;;;;;;;6066661;23;20171;-89
2023/09/16 14:00:32;;;;;;;5.47;3.35;;;;;;;;;;6069628;23;20218;-88
2023/09/16 14:03:38;;;;;;;6.47;2.80;;;;;;;;;;6071026;23;20216;-90
2023/09/16 14:06:43;;;;;;;4.82;2.45;;;;;;;;;;6065975;23;20198;-89
2023/09/16 14:09:51;;;;;;;9.75;2.50;;;;;;;;;;6062070;23;20287;-90
2023/09/16 14:12:58;;;;;;;5.40;2.70;;;;;;;;;;6063214;23;20174;-89
2023/09/16 14:16:08;;;;;;;3.22;2.65;;;;;;;;;;6065840;23;20174;-88
2023/09/16 14:19:15;;;;;;;4.97;2.25;;;;;;;;;;6070531;23;20258;-88
2023/09/16 14:22:20;;;;;;;3.78;2.45;;;;;;;;;;6071411;23;20246;-89
2023/09/16 14:25:26;;;;;;;3.33;2.70;;;;;;;;;;6069391;23;20169;-88
2023/09/16 14:28:33;;;;;;;3.60;2.58;;;;;;;;;;6071320;23;20227;-91
2023/09/16 14:31:40;;;;;;;4.47;2.20;;;;;;;;;;6069870;23;20210;-90
2023/09/16 14:34:45;;;;;;;5.45;2.50;;;;;;;;;;6071615;23;20178;-90
2023/09/16 14:37:53;;;;;;;3.72;2.25;;;;;;;;;;6088690;23;20182;-89
2023/09/16 14:40:58;;;;;;;2.67;2.45;;;;;;;;;;6070641;23;20218;-90
2023/09/16 14:44:04;;;;;;;6.30;3.40;;;;;;;;;;6073126;23;20173;-92
2023/09/16 14:47:14;;;;;;;3.17;2.50;;;;;;;;;;6072009;23;20189;-89
2023/09/16 14:50:19;;;;;;;3.70;2.60;;;;;;;;;;6069687;23;20174;-88
2023/09/16 14:53:24;;;;;;;4.35;2.65;;;;;;;;;;6070030;23;20523;-90
2023/09/16 14:56:29;;;;;;;3.40;2.42;;;;;;;;;;6066908;23;20178;-89
2023/09/16 14:59:35;;;;;;;5.90;2.58;;;;;;;;;;6067153;23;20154;-88
2023/09/16 15:02:43;;;;;;;3.95;2.60;;;;;;;;;;6070338;23;20254;-87
2023/09/16 15:05:49;;;;;;;4.47;2.40;;;;;;;;;;6064892;23;20233;-89
2023/09/16 15:08:54;;;;;;;8.90;2.35;;;;;;;;;;6079200;23;20174;-88
2023/09/16 15:12:01;;;;;;;7.45;2.60;;;;;;;;;;6064905;23;20166;-88
2023/09/16 15:15:07;;;;;;;4.88;2.30;;;;;;;;;;6062693;23;20174;-89
2023/09/16 15:18:14;;;;;;;5.35;2.40;;;;;;;;;;6061502;23;20191;-89
2023/09/16 15:21:20;;;;;;;5.93;2.85;;;;;;;;;;6063465;23;20189;-88
2023/09/16 15:24:25;;;;;;;3.92;2.50;;;;;;;;;;6061740;23;20186;-90
2023/09/16 15:27:30;;;;;;;3.90;2.72;;;;;;;;;;6062345;23;20209;-90
2023/09/16 15:30:35;;;;;;;3.75;2.35;;;;;;;;;;6062946;23;20197;-86
2023/09/16 15:33:42;;;;;;;5.18;2.70;;;;;;;;;;6080070;23;20211;-89
2023/09/16 15:36:47;;;;;;;3.03;2.30;;;;;;;;;;6060174;23;20291;-91
2023/09/16 15:39:52;;;;;;;4.18;2.53;;;;;;;;;;6063815;23;20174;-91
2023/09/16 15:42:57;;;;;;;3.95;2.58;;;;;;;;;;6063309;23;20261;-90
2023/09/16 15:46:11;;;;;;;4.00;2.42;;;;;;;;;;6065118;23;20174;-89
2023/09/16 15:49:19;;;;;;;3.35;2.47;;;;;;;;;;6062722;23;20162;-90
2023/09/16 15:52:25;;;;;;;5.22;2.30;;;;;;;;;;6063222;23;20189;-89
2023/09/16 15:55:30;;;;;;;5.72;2.40;;;;;;;;;;6062372;23;20170;-90
2023/09/16 15:58:35;;;;;;;3.28;2.70;;;;;;;;;;6061296;23;20210;-89
2023/09/16 16:01:40;;;;;;;4.63;2.90;;;;;;;;;;6061404;23;20275;-88
2023/09/16 16:04:47;;;;;;;13.20;5.65;;;;;;;;;;6061804;23;20202;-91
2023/09/16 16:07:52;;;;;;;5.75;3.70;;;;;;;;;;6062364;23;20269;-90
2023/09/16 16:10:58;;;;;;;4.63;3.00;;;;;;;;;;6061597;23;20170;-89
2023/09/16 16:14:04;;;;;;;6.55;3.00;;;;;;;;;;6059813;23;20229;-89
2023/09/16 16:17:10;;;;;;;6.43;3.47;;;;;;;;;;6061322;23;20170;-87
2023/09/16 16:20:17;;;;;;;5.78;3.03;;;;;;;;;;6059938;23;20538;-87
2023/09/16 16:23:22;;;;;;;7.00;3.10;;;;;;;;;;6062163;23;20189;-89
2023/09/16 16:26:27;;;;;;;5.75;2.85;;;;;;;;;;6061106;23;20519;-90
2023/09/16 16:29:32;;;;;;;4.35;3.20;;;;;;;;;;6060032;23;20194;-88
2023/09/16 16:32:37;;;;;;;4.88;3.30;;;;;;;;;;6062389;23;20171;-89
2023/09/16 16:35:44;;;;;;;7.82;3.90;;;;;;;;;;6058751;23;20445;-88
2023/09/16 16:38:49;;;;;;;9.82;3.70;;;;;;;;;;6061105;23;20235;-90
2023/09/16 16:41:55;;;;;;;6.15;3.28;;;;;;;;;;6059418;23;20173;-88
2023/09/16 16:45:00;;;;;;;5.05;3.63;;;;;;;;;;6061884;23;20235;-88
2023/09/16 16:48:14;;;;;;;11.02;4.00;;;;;;;;;;6060876;23;20529;-89
2023/09/16 16:51:21;;;;;;;7.28;4.60;;;;;;;;;;6062277;23;20618;-90
2023/09/16 16:54:28;;;;;;;7.40;4.70;;;;;;;;;;6062631;23;20170;-89
2023/09/16 16:57:34;;;;;;;12.98;6.28;;;;;;;;;;6061985;23;20174;-88
2023/09/16 17:00:39;;;;;;;9.77;5.15;;;;;;;;;;6062660;23;20315;-89
2023/09/16 17:03:46;;;;;;;10.27;5.85;;;;;;;;;;6063187;23;20170;-90
2023/09/16 17:06:53;;;;;;;8.38;6.68;;;;;;;;;;6077765;23;20170;-87
2023/09/16 17:09:58;;;;;;;13.50;8.38;;;;;;;;;;6061617;23;20178;-89
2023/09/16 17:13:04;;;;;;;9.15;5.30;;;;;;;;;;6062154;23;20199;-89
2023/09/16 17:16:10;;;;;;;7.85;4.40;;;;;;;;;;6060987;23;20175;-91
2023/09/16 17:19:14;;;;;;;9.63;4.30;;;;;;;;;;6060900;23;20247;-88
2023/09/16 17:22:21;;;;;;;8.15;4.47;;;;;;;;;;6061592;23;20169;-88
2023/09/16 17:25:26;;;;;;;10.93;4.55;;;;;;;;;;6061245;23;20223;-89
2023/09/16 17:28:31;;;;;;;5.93;3.72;;;;;;;;;;6031683;23;20199;-88
2023/09/16 17:31:37;;;;;;;9.60;4.00;;;;;;;;;;6034390;23;20204;-87
2023/09/16 17:34:42;;;;;;;10.80;4.53;;;;;;;;;;6050641;23;20190;-89
2023/09/16 17:37:48;;;;;;;9.10;4.35;;;;;;;;;;6051348;23;20179;-89
2023/09/16 17:40:54;;;;;;;6.53;4.03;;;;;;;;;;6033197;23;20317;-88
2023/09/16 17:44:04;;;;;;;10.68;4.30;;;;;;;;;;6034551;23;20171;-91
2023/09/16 17:47:11;;;;;;;9.98;4.65;;;;;;;;;;6034955;23;20201;-88
2023/09/16 17:50:17;;;;;;;8.13;4.32;;;;;;;;;;6053923;23;20223;-88
2023/09/16 17:53:24;;;;;;;9.38;5.00;;;;;;;;;;6035613;23;20176;-90
2023/09/16 17:56:29;;;;;;;16.55;5.75;;;;;;;;;;6036421;23;20175;-88
2023/09/16 17:59:34;;;;;;;22.67;11.73;;;;;;;;;;6036035;23;20605;-87
2023/09/16 18:02:40;;;;;;;7.50;4.70;;;;;;;;;;6036155;23;20166;-88
2023/09/16 18:05:47;;;;;;;9.25;4.90;;;;;;;;;;6037257;23;20175;-89
2023/09/16 18:08:53;;;;;;;8.85;4.57;;;;;;;;;;6036907;23;20198;-90
2023/09/16 18:11:58;;;;;;;8.75;4.85;;;;;;;;;;6052212;23;20299;-87
2023/09/16 18:15:04;;;;;;;7.03;4.22;;;;;;;;;;6036390;23;20174;-87
2023/09/16 18:18:10;;;;;;;10.55;4.80;;;;;;;;;;6035208;23;20163;-88
2023/09/16 18:21:15;;;;;;;7.25;4.55;;;;;;;;;;6052935;23;20627;-89
2023/09/16 18:24:25;;;;;;;10.98;4.80;;;;;;;;;;6038328;23;20183;-88
2023/09/16 18:27:36;;;;;;;7.78;4.50;;;;;;;;;;6069776;23;20327;-89
2023/09/16 18:30:42;;;;;;;10.65;5.05;;;;;;;;;;6081572;23;20229;-88
2023/09/16 18:33:48;;;;;;;8.30;5.30;;;;;;;;;;6082254;23;20171;-84